Time;durP1;ratioP1;P1;durP2;ratioP2;P2;SDS_P1;SDS_P2;PMS_P1;PMS_P2;Temp;Humidity;BMP_temperature;BMP_pressure;BME280_temperature;BME280_humidity;BME280_pressure;Samples;Min_cycle;Max_cycle;Signal;HPM_P1;HPM_P2
2024/01/09 00:00:37;;;;;;;6.28;1.15;;;24.60;71.10;;;;;;5025265;28;20038;-75
2024/01/09 00:03:04;;;;;;;2.83;1.00;;;24.70;71.30;;;;;;5051106;28;20029;-77
2024/01/09 00:05:32;;;;;;;2.75;0.90;;;24.70;71.80;;;;;;5047862;28;20554;-77
2024/01/09 00:07:59;;;;;;;2.67;1.00;;;24.80;71.70;;;;;;5034708;28;20025;-76
2024/01/09 00:10:27;;;;;;;3.97;1.10;;;24.80;71.40;;;;;;5035774;28;20045;-80
2024/01/09 00:12:54;;;;;;;4.35;1.23;;;24.90;70.80;;;;;;5041839;28;20032;-82
2024/01/09 00:15:21;;;;;;;3.92;1.02;;;24.80;70.30;;;;;;5047256;28;20061;-82
2024/01/09 00:17:49;;;;;;;6.35;1.27;;;24.80;70.60;;;;;;5026797;28;20018;-87
2024/01/09 00:20:16;;;;;;;5.32;1.10;;;24.80;71.00;;;;;;5016761;28;20056;-78
2024/01/09 00:22:44;;;;;;;8.13;1.10;;;24.80;70.80;;;;;;5028273;28;20030;-82
2024/01/09 00:25:18;;;;;;;8.20;1.23;;;24.90;70.80;;;;;;5035381;28;20022;-79
2024/01/09 00:27:46;;;;;;;4.55;1.10;;;25.00;70.90;;;;;;5022245;28;20049;-87
2024/01/09 00:30:14;;;;;;;3.95;1.35;;;24.90;70.40;;;;;;5043427;28;20032;-78
2024/01/09 00:32:46;;;;;;;6.80;1.52;;;25.00;70.80;;;;;;5034686;28;20056;-77
2024/01/09 00:35:15;;;;;;;9.02;1.58;;;25.00;70.60;;;;;;5037281;28;20105;-77
2024/01/09 00:37:43;;;;;;;4.80;1.40;;;25.10;70.40;;;;;;5032882;28;20032;-78
2024/01/09 00:40:11;;;;;;;3.13;0.98;;;25.10;70.20;;;;;;5039822;28;20114;-78
2024/01/09 00:42:38;;;;;;;6.95;1.50;;;25.10;70.40;;;;;;5030896;28;20024;-81
2024/01/09 00:45:07;;;;;;;5.13;1.50;;;25.20;70.10;;;;;;5035250;28;20017;-85
2024/01/09 00:47:35;;;;;;;3.65;1.35;;;25.20;69.90;;;;;;5035619;28;20014;-82
2024/01/09 00:50:02;;;;;;;8.43;1.25;;;25.20;69.40;;;;;;5034959;28;20556;-79
2024/01/09 00:52:30;;;;;;;4.95;1.20;;;25.20;69.30;;;;;;5035316;28;20018;-85
2024/01/09 00:54:58;;;;;;;4.57;1.08;;;25.10;69.30;;;;;;5035192;28;20031;-85
2024/01/09 00:57:26;;;;;;;4.82;1.13;;;25.20;69.00;;;;;;5035436;28;20527;-84
2024/01/09 00:59:54;;;;;;;5.70;1.35;;;25.20;69.30;;;;;;5029004;28;20515;-76
2024/01/09 01:02:22;;;;;;;8.45;1.50;;;25.20;68.80;;;;;;5029676;28;20455;-77
2024/01/09 01:04:50;;;;;;;4.70;1.15;;;25.10;69.20;;;;;;5038006;28;20119;-82
2024/01/09 01:07:17;;;;;;;5.82;1.42;;;25.20;69.60;;;;;;5036944;28;20033;-89
2024/01/09 01:09:44;;;;;;;5.80;1.33;;;25.30;69.20;;;;;;5047640;28;20029;-84
2024/01/09 01:12:12;;;;;;;6.18;1.13;;;25.20;68.70;;;;;;5043127;28;20041;-84
2024/01/09 01:14:41;;;;;;;4.45;1.10;;;25.30;68.90;;;;;;5027546;28;20105;-85
2024/01/09 01:17:09;;;;;;;4.78;1.13;;;25.30;68.70;;;;;;5024776;28;20029;-82
2024/01/09 01:19:36;;;;;;;3.33;0.80;;;25.30;68.90;;;;;;5023277;28;20105;-85
2024/01/09 01:22:03;;;;;;;4.40;0.85;;;25.30;68.50;;;;;;5027370;28;20029;-88
2024/01/09 01:24:31;;;;;;;2.88;0.88;;;25.30;68.50;;;;;;5033985;28;20364;-81
2024/01/09 01:26:58;;;;;;;4.28;1.02;;;25.30;68.40;;;;;;5034294;28;20392;-85
2024/01/09 01:29:27;;;;;;;5.88;1.17;;;25.30;68.40;;;;;;5029811;28;20029;-81
2024/01/09 01:31:55;;;;;;;2.75;1.00;;;25.30;68.30;;;;;;5030204;28;20527;-83
2024/01/09 01:34:22;;;;;;;6.68;1.25;;;25.50;68.50;;;;;;5028765;28;20083;-83
2024/01/09 01:36:50;;;;;;;8.70;1.65;;;25.50;68.20;;;;;;5033336;28;20380;-80
2024/01/09 01:39:17;;;;;;;6.30;1.20;;;25.50;67.90;;;;;;5033030;28;20551;-88
2024/01/09 01:41:46;;;;;;;6.80;1.23;;;25.50;67.80;;;;;;5033796;28;20470;-80
2024/01/09 01:44:18;;;;;;;5.05;1.00;;;25.60;68.10;;;;;;5034615;28;20017;-86
2024/01/09 01:46:51;;;;;;;5.43;1.42;;;25.70;68.00;;;;;;5033699;28;20449;-89
2024/01/09 01:49:19;;;;;;;4.88;0.82;;;25.70;67.90;;;;;;5032270;28;20029;-87
2024/01/09 01:51:49;;;;;;;4.70;1.38;;;25.80;68.00;;;;;;5039617;28;20040;-85
2024/01/09 01:54:17;;;;;;;3.13;1.20;;;25.90;67.30;;;;;;5029063;28;20469;-83
2024/01/09 01:56:49;;;;;;;4.93;1.50;;;25.90;67.50;;;;;;5014595;28;20057;-80
2024/01/09 01:59:18;;;;;;;2.42;0.88;;;26.00;66.80;;;;;;5014327;28;20079;-84
2024/01/09 02:01:46;;;;;;;4.57;1.38;;;26.00;66.30;;;;;;5022361;28;20033;-84
2024/01/09 02:04:16;;;;;;;4.70;0.98;;;26.00;66.50;;;;;;5035697;28;20555;-86
2024/01/09 02:06:43;;;;;;;3.85;1.10;;;26.00;65.70;;;;;;5013814;28;20034;-87
2024/01/09 02:09:11;;;;;;;4.95;1.00;;;26.00;65.40;;;;;;5016720;28;20112;-84
2024/01/09 02:11:39;;;;;;;4.05;1.00;;;26.00;65.20;;;;;;5015827;28;20033;-83
2024/01/09 02:14:06;;;;;;;4.55;1.10;;;26.00;65.00;;;;;;5050156;28;20548;-86
2024/01/09 02:16:34;;;;;;;3.40;1.13;;;25.90;65.30;;;;;;5048657;28;20025;-87
2024/01/09 02:19:01;;;;;;;5.03;1.15;;;26.00;65.90;;;;;;5035680;28;20025;-82
2024/01/09 02:21:29;;;;;;;7.28;1.00;;;26.00;66.40;;;;;;5016411;28;20657;-90
2024/01/09 02:23:56;;;;;;;7.40;1.55;;;26.10;66.20;;;;;;5017141;28;20113;-90
2024/01/09 02:26:35;;;;;;;4.95;1.30;;;26.20;66.40;;;;;;5016413;28;20026;-83
2024/01/09 02:29:07;;;;;;;5.50;1.20;;;26.20;66.40;;;;;;5032921;28;20496;-78
2024/01/09 02:31:35;;;;;;;7.20;1.13;;;26.30;66.30;;;;;;5032768;28;20041;-81
2024/01/09 02:34:04;;;;;;;3.38;1.17;;;26.30;66.10;;;;;;5024723;28;20105;-81
2024/01/09 02:36:31;;;;;;;4.95;1.30;;;26.40;66.40;;;;;;5041963;28;20112;-80
2024/01/09 02:38:58;;;;;;;8.18;1.20;;;26.50;66.30;;;;;;5031769;28;20030;-78
2024/01/09 02:41:26;;;;;;;4.22;1.00;;;26.40;66.00;;;;;;5031252;28;20022;-80
2024/01/09 02:43:53;;;;;;;3.45;1.10;;;26.40;66.40;;;;;;5040160;28;20132;-77
2024/01/09 02:46:21;;;;;;;4.93;1.20;;;26.50;66.40;;;;;;5029038;28;20051;-84
2024/01/09 02:48:48;;;;;;;4.18;1.10;;;26.50;66.40;;;;;;5029144;28;20064;-80
2024/01/09 02:51:16;;;;;;;5.20;1.20;;;26.60;66.60;;;;;;5031494;28;20044;-86
2024/01/09 02:53:43;;;;;;;9.63;1.40;;;26.70;66.30;;;;;;5036056;28;20723;-85
2024/01/09 02:56:10;;;;;;;7.85;1.40;;;26.60;66.30;;;;;;5030374;28;20030;-89
2024/01/09 02:58:38;;;;;;;6.05;1.10;;;26.60;66.10;;;;;;5033614;28;20029;-78
2024/01/09 03:01:06;;;;;;;3.90;1.30;;;26.50;66.00;;;;;;5031747;28;20480;-82
2024/01/09 03:03:34;;;;;;;4.95;1.15;;;26.50;65.60;;;;;;5031916;28;20041;-77
2024/01/09 03:06:01;;;;;;;4.25;1.10;;;26.50;66.00;;;;;;5032336;28;20112;-78
2024/01/09 03:08:28;;;;;;;4.35;1.13;;;26.40;65.50;;;;;;5030872;28;20094;-83
2024/01/09 03:10:56;;;;;;;5.32;1.35;;;26.30;65.90;;;;;;5030797;28;20029;-83
2024/01/09 03:13:23;;;;;;;7.00;1.40;;;26.10;65.60;;;;;;5031384;28;20129;-83
2024/01/09 03:15:51;;;;;;;7.53;1.38;;;26.00;66.40;;;;;;5023191;28;20491;-82
2024/01/09 03:18:18;;;;;;;6.45;1.52;;;25.90;66.90;;;;;;5022801;28;20018;-79
2024/01/09 03:20:45;;;;;;;6.60;1.70;;;25.80;67.20;;;;;;5034626;28;20033;-82
2024/01/09 03:23:13;;;;;;;6.40;1.65;;;25.80;67.70;;;;;;5042614;28;20104;-78
2024/01/09 03:25:40;;;;;;;6.18;1.33;;;25.80;67.80;;;;;;5036974;28;20037;-79
2024/01/09 03:28:07;;;;;;;8.10;1.60;;;25.80;67.90;;;;;;5031997;28;20540;-80
2024/01/09 03:30:35;;;;;;;5.03;1.20;;;25.80;68.50;;;;;;5030713;28;20041;-80
2024/01/09 03:33:02;;;;;;;4.90;1.20;;;25.80;68.20;;;;;;5031328;28;20036;-80
2024/01/09 03:35:30;;;;;;;7.60;1.35;;;25.80;68.30;;;;;;5026252;28;20105;-78
2024/01/09 03:37:57;;;;;;;8.55;1.23;;;25.90;67.70;;;;;;5029161;28;20029;-78
2024/01/09 03:40:24;;;;;;;6.10;1.40;;;25.90;67.90;;;;;;5031427;28;20524;-79
2024/01/09 03:42:52;;;;;;;3.70;1.20;;;25.80;67.60;;;;;;5021335;28;20037;-77
2024/01/09 03:45:19;;;;;;;4.57;1.23;;;25.80;67.70;;;;;;5025715;28;20057;-84
2024/01/09 03:47:46;;;;;;;7.35;1.63;;;25.80;67.30;;;;;;5030739;28;20485;-84
2024/01/09 03:50:14;;;;;;;4.28;1.20;;;25.70;67.80;;;;;;5021405;28;20581;-79
2024/01/09 03:52:41;;;;;;;5.53;1.50;;;25.70;68.30;;;;;;5015024;28;20481;-86
2024/01/09 03:55:09;;;;;;;7.72;1.58;;;25.80;68.40;;;;;;5012293;28;20030;-78
2024/01/09 03:57:36;;;;;;;8.75;1.95;;;25.80;68.60;;;;;;5011673;28;20026;-77
2024/01/09 04:00:04;;;;;;;5.55;1.70;;;25.80;68.90;;;;;;5016482;28;20038;-81
2024/01/09 04:02:32;;;;;;;8.80;1.80;;;25.80;68.70;;;;;;5023825;28;20033;-80
2024/01/09 04:05:00;;;;;;;8.63;1.65;;;25.90;68.80;;;;;;5025400;28;20062;-78
2024/01/09 04:07:27;;;;;;;7.47;2.45;;;25.90;68.70;;;;;;5020128;28;20500;-78
2024/01/09 04:09:55;;;;;;;10.25;2.03;;;25.90;68.60;;;;;;5036460;28;20037;-83
2024/01/09 04:12:22;;;;;;;8.40;1.80;;;25.90;68.80;;;;;;5021285;28;20485;-79
2024/01/09 04:14:49;;;;;;;9.75;1.83;;;25.90;68.90;;;;;;5020116;28;20033;-80
2024/01/09 04:17:17;;;;;;;7.78;1.85;;;25.80;68.90;;;;;;5020599;28;20753;-84
2024/01/09 04:19:44;;;;;;;8.70;1.42;;;25.80;68.90;;;;;;5021060;28;20099;-83
2024/01/09 04:22:12;;;;;;;6.55;1.60;;;25.80;68.90;;;;;;5025515;28;20036;-88
2024/01/09 04:24:39;;;;;;;6.22;1.50;;;25.70;69.40;;;;;;5029887;28;20018;-78
2024/01/09 04:27:06;;;;;;;6.65;1.52;;;25.70;69.50;;;;;;5015977;28;20044;-80
2024/01/09 04:29:34;;;;;;;10.65;1.83;;;25.70;69.70;;;;;;5039817;28;20388;-80
2024/01/09 04:32:02;;;;;;;6.78;1.67;;;25.80;69.80;;;;;;5021970;28;20065;-77
2024/01/09 04:34:29;;;;;;;6.25;1.80;;;25.80;69.70;;;;;;5024416;28;20022;-81
2024/01/09 04:36:56;;;;;;;6.45;1.60;;;25.80;69.70;;;;;;5036066;28;20030;-77
2024/01/09 04:39:24;;;;;;;5.00;1.52;;;25.80;69.50;;;;;;5017494;28;20030;-86
2024/01/09 04:41:51;;;;;;;3.38;1.20;;;25.70;68.50;;;;;;5029151;28;20021;-80
2024/01/09 04:44:18;;;;;;;6.55;1.50;;;25.80;68.30;;;;;;5022508;28;20014;-81
2024/01/09 04:46:46;;;;;;;4.32;1.50;;;25.70;67.80;;;;;;5015459;28;20053;-83
2024/01/09 04:49:13;;;;;;;9.02;1.40;;;25.70;68.10;;;;;;5017511;28;20033;-84
2024/01/09 04:51:44;;;;;;;4.97;1.60;;;25.70;68.00;;;;;;5032450;28;20489;-83
2024/01/09 04:54:11;;;;;;;5.18;1.55;;;25.70;67.90;;;;;;5027084;28;20189;-82
2024/01/09 04:56:40;;;;;;;5.95;1.38;;;25.70;67.50;;;;;;5036171;28;20030;-83
2024/01/09 04:59:08;;;;;;;5.00;1.50;;;25.80;67.30;;;;;;5036476;28;20021;-92
2024/01/09 05:01:35;;;;;;;5.40;1.33;;;25.80;67.30;;;;;;5030685;28;20049;-81
2024/01/09 05:04:02;;;;;;;5.70;1.38;;;25.80;66.90;;;;;;5040869;28;20140;-78
2024/01/09 05:06:30;;;;;;;4.53;1.17;;;25.90;67.10;;;;;;5042554;28;20021;-80
2024/01/09 05:08:57;;;;;;;5.35;1.13;;;26.00;67.30;;;;;;5022765;28;20022;-87
2024/01/09 05:11:24;;;;;;;8.52;1.60;;;26.10;67.10;;;;;;5043347;28;20395;-78
2024/01/09 05:13:53;;;;;;;2.35;1.05;;;26.20;67.20;;;;;;5035291;28;20021;-90
2024/01/09 05:16:20;;;;;;;3.35;1.30;;;26.20;65.80;;;;;;5031592;28;20489;-81
2024/01/09 05:18:47;;;;;;;7.75;1.20;;;26.20;65.80;;;;;;5029972;28;20076;-85
2024/01/09 05:21:15;;;;;;;5.57;1.40;;;26.20;65.90;;;;;;5034643;28;20026;-90
2024/01/09 05:23:44;;;;;;;5.03;1.58;;;26.30;65.40;;;;;;5025298;28;20091;-82
2024/01/09 05:26:12;;;;;;;5.75;1.70;;;26.20;66.10;;;;;;5020050;28;20076;-88
2024/01/09 05:28:39;;;;;;;4.70;1.35;;;26.20;65.60;;;;;;5026378;28;20052;-81
2024/01/09 05:31:07;;;;;;;6.35;1.40;;;26.20;65.50;;;;;;5036296;28;20134;-89
2024/01/09 05:33:35;;;;;;;4.55;1.40;;;26.10;65.80;;;;;;5045457;28;20465;-92
2024/01/09 05:36:03;;;;;;;3.45;1.48;;;26.00;66.60;;;;;;5032248;28;20064;-83
2024/01/09 05:38:31;;;;;;;6.53;1.50;;;26.00;66.90;;;;;;5025329;28;20026;-86
2024/01/09 05:40:59;;;;;;;6.72;1.38;;;26.00;67.20;;;;;;5048248;28;20035;-91
2024/01/09 05:43:26;;;;;;;4.22;2.03;;;25.90;67.30;;;;;;5021261;28;20045;-85
2024/01/09 05:45:56;;;;;;;5.18;1.40;;;25.90;67.40;;;;;;5015925;28;20037;-84
2024/01/09 05:48:23;;;;;;;8.82;1.60;;;25.90;67.50;;;;;;5024150;28;20030;-76
2024/01/09 05:50:52;;;;;;;4.80;1.40;;;25.80;67.80;;;;;;5022057;28;20108;-86
2024/01/09 05:53:19;;;;;;;6.78;1.73;;;25.80;68.10;;;;;;5030243;28;20479;-83
2024/01/09 05:55:47;;;;;;;5.25;1.48;;;25.70;67.80;;;;;;5026830;28;20473;-82
2024/01/09 05:58:14;;;;;;;4.70;1.77;;;25.60;68.40;;;;;;5018613;28;20029;-82
2024/01/09 06:00:42;;;;;;;5.60;1.45;;;25.60;68.70;;;;;;5019399;28;20429;-78
2024/01/09 06:03:09;;;;;;;5.35;1.45;;;25.50;68.70;;;;;;5031096;28;20111;-78
2024/01/09 06:05:37;;;;;;;5.97;1.42;;;25.50;68.60;;;;;;5020308;28;20033;-81
2024/01/09 06:08:04;;;;;;;4.47;1.23;;;25.40;68.60;;;;;;5019315;28;20021;-84
2024/01/09 06:10:32;;;;;;;5.47;1.40;;;25.40;68.50;;;;;;5030090;28;20034;-79
2024/01/09 06:12:59;;;;;;;4.40;1.33;;;25.40;68.50;;;;;;5029538;28;20177;-78
2024/01/09 06:15:27;;;;;;;5.07;1.30;;;25.40;68.80;;;;;;5020371;28;20489;-82
2024/01/09 06:17:54;;;;;;;2.25;0.93;;;25.60;68.60;;;;;;5020547;28;20025;-84
2024/01/09 06:20:22;;;;;;;5.57;1.00;;;25.70;68.40;;;;;;5026147;28;20043;-77
2024/01/09 06:22:49;;;;;;;3.70;1.15;;;25.80;68.20;;;;;;5020736;28;20018;-80
2024/01/09 06:25:17;;;;;;;7.05;1.65;;;25.80;68.10;;;;;;5020655;28;20136;-83
2024/01/09 06:27:44;;;;;;;5.35;1.15;;;25.90;68.20;;;;;;5019217;28;20388;-80
2024/01/09 06:30:12;;;;;;;2.70;1.15;;;26.00;67.90;;;;;;5018433;28;20099;-81
2024/01/09 06:32:40;;;;;;;4.90;1.45;;;26.10;67.80;;;;;;5017647;28;20022;-80
2024/01/09 06:35:08;;;;;;;5.55;1.20;;;26.10;67.60;;;;;;5031081;28;20029;-81
2024/01/09 06:37:35;;;;;;;5.90;1.45;;;26.20;67.00;;;;;;5019015;28;20030;-81
2024/01/09 06:40:03;;;;;;;4.70;1.00;;;26.30;66.80;;;;;;5030425;28;20803;-81
2024/01/09 06:42:31;;;;;;;5.15;1.00;;;26.30;65.60;;;;;;5023873;28;20037;-79
2024/01/09 06:44:58;;;;;;;5.55;1.67;;;26.30;66.10;;;;;;5020642;28;20052;-80
2024/01/09 06:47:25;;;;;;;7.28;1.40;;;26.30;66.20;;;;;;5020418;28;20045;-80
2024/01/09 06:49:53;;;;;;;5.68;1.33;;;26.30;66.10;;;;;;5020840;28;20025;-81
2024/01/09 06:52:20;;;;;;;4.90;1.35;;;26.30;66.40;;;;;;5019426;28;20038;-87
2024/01/09 06:54:48;;;;;;;8.57;1.45;;;26.20;66.80;;;;;;5025821;28;20025;-82
2024/01/09 06:57:15;;;;;;;4.43;1.17;;;26.00;66.90;;;;;;5021360;28;20040;-80
2024/01/09 06:59:44;;;;;;;5.95;1.42;;;26.00;67.40;;;;;;5011051;28;20052;-80
2024/01/09 07:02:12;;;;;;;6.38;1.58;;;25.90;67.60;;;;;;5034759;28;20049;-79
2024/01/09 07:04:39;;;;;;;9.32;2.03;;;25.80;68.00;;;;;;5015832;28;20052;-81
2024/01/09 07:07:08;;;;;;;6.05;1.70;;;25.80;68.50;;;;;;5028261;28;20060;-82
2024/01/09 07:09:38;;;;;;;8.32;1.52;;;25.80;68.80;;;;;;5042567;28;20036;-79
2024/01/09 07:12:07;;;;;;;5.80;1.83;;;25.70;68.90;;;;;;5027676;28;20114;-85
2024/01/09 07:14:34;;;;;;;3.92;1.42;;;25.60;69.00;;;;;;5026485;28;20519;-79
2024/01/09 07:17:03;;;;;;;7.10;2.03;;;25.50;69.30;;;;;;5025738;28;20389;-79
2024/01/09 07:19:31;;;;;;;3.47;1.60;;;25.50;69.70;;;;;;5031517;28;20350;-80
2024/01/09 07:21:58;;;;;;;7.32;1.90;;;25.40;69.90;;;;;;5015690;28;20442;-83
2024/01/09 07:24:26;;;;;;;6.32;2.03;;;25.30;70.20;;;;;;5029914;28;20026;-80
2024/01/09 07:26:53;;;;;;;9.52;2.10;;;25.30;70.60;;;;;;5026989;28;20025;-83
2024/01/09 07:29:21;;;;;;;7.30;2.45;;;25.30;71.20;;;;;;5021442;28;20030;-83
2024/01/09 07:31:48;;;;;;;8.40;2.35;;;25.20;71.50;;;;;;5031359;28;20451;-83
2024/01/09 07:34:15;;;;;;;4.13;1.63;;;25.20;71.40;;;;;;5031834;28;20075;-80
2024/01/09 07:36:43;;;;;;;9.60;2.00;;;25.10;71.70;;;;;;5043479;28;20026;-83
2024/01/09 07:39:12;;;;;;;9.05;1.95;;;25.10;71.80;;;;;;5032257;28;20075;-78
2024/01/09 07:41:40;;;;;;;6.78;1.90;;;25.00;71.70;;;;;;5032539;28;20018;-85
2024/01/09 07:44:08;;;;;;;8.85;1.83;;;25.00;71.90;;;;;;5038894;28;20363;-83
2024/01/09 07:46:35;;;;;;;7.03;1.88;;;25.00;71.80;;;;;;5039177;28;20100;-81
2024/01/09 07:49:02;;;;;;;7.25;2.00;;;24.90;71.60;;;;;;5043194;28;20029;-80
2024/01/09 07:51:30;;;;;;;6.22;1.38;;;24.90;71.60;;;;;;5053225;28;20510;-83
2024/01/09 07:53:57;;;;;;;6.75;2.10;;;24.90;71.60;;;;;;5052060;28;20464;-80
2024/01/09 07:56:24;;;;;;;6.95;1.70;;;24.90;71.90;;;;;;5049116;28;20484;-78
2024/01/09 07:58:52;;;;;;;5.38;1.58;;;25.00;72.00;;;;;;5013298;28;20488;-81
2024/01/09 08:01:20;;;;;;;8.80;1.83;;;24.90;72.10;;;;;;5028057;28;20025;-84
2024/01/09 08:03:47;;;;;;;8.48;1.60;;;24.90;72.10;;;;;;5032690;28;20045;-80
2024/01/09 08:06:16;;;;;;;7.65;1.83;;;24.80;72.10;;;;;;5038622;28;20056;-84
2024/01/09 08:08:44;;;;;;;7.35;1.92;;;24.90;72.30;;;;;;5032748;28;20033;-77
2024/01/09 08:11:11;;;;;;;6.35;1.55;;;24.80;72.20;;;;;;5047455;28;20029;-78
2024/01/09 08:13:40;;;;;;;7.18;2.20;;;24.80;72.20;;;;;;5044702;28;20473;-80
2024/01/09 08:16:08;;;;;;;4.28;1.77;;;24.80;72.20;;;;;;5037297;28;20037;-77
2024/01/09 08:18:37;;;;;;;8.50;3.42;;;24.80;72.30;;;;;;5041884;28;20033;-86
2024/01/09 08:21:05;;;;;;;4.93;2.05;;;24.80;72.40;;;;;;5036459;28;20099;-82
2024/01/09 08:23:33;;;;;;;5.13;1.85;;;24.80;72.20;;;;;;5050191;28;20056;-81
2024/01/09 08:26:00;;;;;;;4.22;1.67;;;24.80;72.20;;;;;;5045196;28;20094;-83
2024/01/09 08:28:27;;;;;;;5.20;1.85;;;24.80;72.20;;;;;;5054451;28;20105;-82
2024/01/09 08:30:55;;;;;;;6.18;1.58;;;24.80;72.20;;;;;;5040735;28;20044;-82
2024/01/09 08:33:22;;;;;;;4.82;1.60;;;24.70;72.30;;;;;;5036657;28;20028;-79
2024/01/09 08:35:50;;;;;;;6.47;1.67;;;24.70;72.30;;;;;;5042699;28;20025;-84
2024/01/09 08:38:20;;;;;;;9.48;1.80;;;24.70;72.30;;;;;;5040808;28;20512;-79
2024/01/09 08:40:53;;;;;;;9.70;1.88;;;24.70;72.50;;;;;;5047407;28;20110;-85
2024/01/09 08:43:20;;;;;;;6.28;1.60;;;24.70;72.60;;;;;;5029133;28;20024;-83
2024/01/09 08:45:49;;;;;;;6.18;1.60;;;24.70;72.70;;;;;;5037899;28;20109;-79
2024/01/09 08:48:19;;;;;;;5.22;1.50;;;24.70;72.80;;;;;;5034350;28;20045;-83
2024/01/09 08:50:48;;;;;;;4.15;1.40;;;24.70;72.70;;;;;;5048623;28;20036;-78
2024/01/09 08:53:15;;;;;;;5.32;1.50;;;24.60;72.70;;;;;;5039864;28;20531;-84
2024/01/09 08:55:43;;;;;;;8.48;1.98;;;24.70;72.80;;;;;;5040091;28;20460;-82
2024/01/09 08:58:10;;;;;;;8.25;1.70;;;24.60;72.90;;;;;;5045410;28;20364;-81
2024/01/09 09:00:37;;;;;;;9.95;1.70;;;24.60;73.00;;;;;;5043050;28;20035;-79
2024/01/09 09:03:05;;;;;;;6.40;1.80;;;24.70;73.10;;;;;;5027031;28;20024;-82
2024/01/09 09:05:32;;;;;;;7.78;1.92;;;24.60;73.30;;;;;;5033067;28;20099;-80
2024/01/09 09:08:00;;;;;;;7.97;1.77;;;24.60;73.30;;;;;;5038889;28;20123;-79
2024/01/09 09:10:27;;;;;;;9.50;2.78;;;24.60;73.20;;;;;;5036399;28;20044;-86
2024/01/09 09:12:54;;;;;;;4.05;1.30;;;24.60;73.30;;;;;;5033627;28;20035;-82
2024/01/09 09:15:22;;;;;;;7.75;2.10;;;24.60;73.20;;;;;;5030974;28;20032;-78
2024/01/09 09:17:49;;;;;;;7.38;2.38;;;24.60;73.20;;;;;;5032019;28;20033;-78
2024/01/09 09:20:17;;;;;;;7.03;1.83;;;24.60;73.20;;;;;;5035674;28;20045;-78
2024/01/09 09:22:44;;;;;;;7.57;1.65;;;24.60;73.10;;;;;;5023890;28;20026;-77
2024/01/09 09:25:12;;;;;;;5.70;1.40;;;24.50;73.00;;;;;;5034119;28;20025;-78
2024/01/09 09:27:42;;;;;;;5.05;1.65;;;24.50;73.00;;;;;;5032999;28;20491;-77
2024/01/09 09:30:10;;;;;;;7.38;1.35;;;24.50;73.10;;;;;;5029623;28;20029;-77
2024/01/09 09:32:38;;;;;;;2.30;1.27;;;24.50;73.10;;;;;;5026856;28;20034;-77
2024/01/09 09:35:06;;;;;;;9.55;1.75;;;24.50;73.10;;;;;;5033148;28;20021;-78
2024/01/09 09:37:34;;;;;;;6.43;2.13;;;24.50;73.00;;;;;;5035290;28;20104;-83
2024/01/09 09:40:02;;;;;;;13.13;2.40;;;24.50;73.10;;;;;;5034811;28;20025;-81
2024/01/09 09:42:31;;;;;;;8.90;2.28;;;24.40;73.20;;;;;;5029892;28;20029;-86
2024/01/09 09:45:02;;;;;;;12.48;2.40;;;24.40;73.40;;;;;;5024756;28;20025;-80
2024/01/09 09:47:30;;;;;;;5.78;1.98;;;24.40;73.40;;;;;;5035166;28;20078;-84
2024/01/09 09:49:58;;;;;;;7.28;2.15;;;24.40;73.50;;;;;;5029890;28;20040;-85
2024/01/09 09:52:28;;;;;;;10.40;3.10;;;24.30;73.50;;;;;;5021138;28;20037;-83
2024/01/09 09:54:55;;;;;;;6.78;2.42;;;24.40;73.60;;;;;;5033727;28;20432;-79
2024/01/09 09:57:23;;;;;;;10.68;1.70;;;24.30;73.70;;;;;;5044942;28;20495;-81
2024/01/09 09:59:50;;;;;;;7.30;1.60;;;24.40;73.80;;;;;;5042092;28;20127;-82
2024/01/09 10:02:28;;;;;;;8.52;2.30;;;24.30;73.70;;;;;;5036846;28;20112;-83
2024/01/09 10:05:04;;;;;;;10.82;2.03;;;24.30;73.80;;;;;;5024143;28;20095;-86
2024/01/09 10:07:38;;;;;;;7.47;1.85;;;24.30;73.70;;;;;;5027549;28;20022;-85
2024/01/09 10:10:08;;;;;;;9.98;2.50;;;24.30;73.80;;;;;;5031480;28;20082;-79
2024/01/09 10:12:35;;;;;;;8.40;1.88;;;24.30;73.70;;;;;;5036734;28;20052;-86
2024/01/09 10:15:13;;;;;;;7.22;1.80;;;24.30;73.90;;;;;;5041210;28;20103;-87
2024/01/09 10:17:41;;;;;;;11.43;1.73;;;24.30;74.00;;;;;;5029898;28;20040;-80
2024/01/09 10:20:13;;;;;;;5.53;1.45;;;24.30;74.00;;;;;;5029675;28;20076;-80
2024/01/09 10:22:41;;;;;;;12.05;2.10;;;24.30;74.20;;;;;;5038747;28;20111;-79
2024/01/09 10:25:11;;;;;;;8.25;2.47;;;24.30;74.20;;;;;;5042540;28;20037;-86
2024/01/09 10:27:41;;;;;;;8.80;3.10;;;24.30;74.30;;;;;;5031299;28;20380;-82
2024/01/09 10:30:10;;;;;;;11.40;2.30;;;24.20;74.40;;;;;;5043639;28;20067;-79
2024/01/09 10:32:39;;;;;;;6.00;1.67;;;24.20;74.40;;;;;;5028062;28;20032;-83
2024/01/09 10:35:07;;;;;;;10.25;2.40;;;24.20;74.40;;;;;;5032430;28;20040;-85
2024/01/09 10:37:37;;;;;;;9.27;2.50;;;24.20;74.30;;;;;;5032342;28;20029;-80
2024/01/09 10:40:05;;;;;;;7.45;2.03;;;24.20;74.40;;;;;;5031442;28;20426;-77
2024/01/09 10:42:44;;;;;;;6.50;1.88;;;24.20;74.40;;;;;;5029165;28;20034;-77
2024/01/09 10:45:11;;;;;;;7.25;1.77;;;24.20;74.30;;;;;;5023841;28;20021;-77
2024/01/09 10:47:39;;;;;;;10.02;2.38;;;24.20;74.30;;;;;;5029566;28;20087;-77
2024/01/09 10:50:10;;;;;;;6.75;2.17;;;24.20;74.30;;;;;;5032036;28;20079;-77
2024/01/09 10:52:38;;;;;;;6.38;1.80;;;24.10;74.40;;;;;;5031896;28;20379;-78
2024/01/09 10:55:08;;;;;;;11.38;2.10;;;24.10;74.40;;;;;;5031797;28;20022;-77
2024/01/09 10:57:36;;;;;;;10.98;2.33;;;24.10;74.70;;;;;;5030514;28;20075;-79
2024/01/09 11:00:08;;;;;;;9.50;2.10;;;24.10;74.60;;;;;;5023995;28;20056;-78
2024/01/09 11:02:56;;;;;;;7.78;2.17;;;24.10;74.60;;;;;;5030457;28;20033;-78
2024/01/09 11:05:24;;;;;;;6.50;1.63;;;24.10;74.70;;;;;;5021217;28;20384;-85
2024/01/09 11:07:55;;;;;;;10.32;2.03;;;24.10;74.60;;;;;;5031915;28;20113;-78
2024/01/09 11:10:24;;;;;;;8.10;1.70;;;24.10;74.50;;;;;;5031738;28;20384;-79
2024/01/09 11:12:53;;;;;;;10.73;2.10;;;24.10;74.70;;;;;;5031384;28;20468;-78
2024/01/09 11:15:31;;;;;;;9.93;2.60;;;24.00;74.50;;;;;;5031219;28;20029;-78
2024/01/09 11:18:15;;;;;;;6.57;1.88;;;24.10;74.60;;;;;;5031206;28;20104;-79
2024/01/09 11:20:43;;;;;;;7.07;1.70;;;24.00;74.60;;;;;;5030395;28;20504;-86
2024/01/09 11:23:11;;;;;;;8.68;2.15;;;24.00;74.60;;;;;;5031134;28;20033;-76
2024/01/09 11:25:39;;;;;;;6.43;1.80;;;24.00;74.50;;;;;;5041737;28;20055;-78
2024/01/09 11:28:26;;;;;;;12.75;2.40;;;24.10;74.50;;;;;;5049062;28;20132;-77
2024/01/09 11:30:54;;;;;;;10.52;2.10;;;24.00;74.50;;;;;;5030629;28;20448;-80
2024/01/09 11:33:33;;;;;;;11.65;2.25;;;24.00;74.50;;;;;;5031524;28;20109;-76
2024/01/09 11:36:08;;;;;;;9.32;2.10;;;24.00;74.90;;;;;;5031820;28;20025;-79
2024/01/09 11:38:37;;;;;;;8.95;2.13;;;24.00;74.70;;;;;;5031935;28;20041;-76
2024/01/09 11:41:06;;;;;;;12.60;2.50;;;24.00;74.90;;;;;;5032025;28;20030;-76
2024/01/09 11:43:58;;;;;;;9.48;2.45;;;24.00;75.00;;;;;;5032501;28;20024;-76
2024/01/09 11:46:27;;;;;;;12.07;2.80;;;24.00;74.70;;;;;;5032832;28;20064;-76
2024/01/09 11:48:55;;;;;;;9.63;2.35;;;23.90;74.80;;;;;;5036486;28;20027;-80
2024/01/09 11:51:25;;;;;;;6.32;1.55;;;23.90;74.90;;;;;;5036365;28;20456;-77
2024/01/09 11:53:52;;;;;;;8.63;1.75;;;23.90;74.90;;;;;;5044824;28;20026;-83
2024/01/09 11:56:21;;;;;;;7.50;2.28;;;23.90;75.00;;;;;;5041512;28;20029;-80
2024/01/09 11:58:53;;;;;;;9.27;1.90;;;23.90;75.10;;;;;;5036584;28;20056;-86
2024/01/09 12:01:22;;;;;;;8.77;2.30;;;23.80;75.10;;;;;;5036552;28;20126;-82
2024/01/09 12:03:54;;;;;;;10.35;2.10;;;23.80;75.00;;;;;;5039553;28;20045;-85
2024/01/09 12:06:23;;;;;;;9.25;2.03;;;23.80;75.30;;;;;;5049838;28;20033;-83
2024/01/09 12:08:52;;;;;;;10.05;2.42;;;23.80;75.20;;;;;;5035701;28;20025;-83
2024/01/09 12:11:22;;;;;;;10.07;1.92;;;23.80;75.30;;;;;;5033520;28;20037;-85
2024/01/09 12:14:00;;;;;;;5.80;1.63;;;23.80;75.40;;;;;;5036896;28;20032;-85
2024/01/09 12:16:31;;;;;;;8.95;1.92;;;23.80;75.30;;;;;;5039450;28;20479;-80
2024/01/09 12:18:59;;;;;;;11.25;2.20;;;23.70;75.40;;;;;;5043071;28;20022;-78
2024/01/09 12:21:31;;;;;;;10.60;2.00;;;23.70;75.40;;;;;;5049094;28;20021;-77
2024/01/09 12:24:04;;;;;;;11.38;2.60;;;23.80;75.50;;;;;;5037242;28;20109;-77
2024/01/09 12:26:34;;;;;;;8.40;2.30;;;23.80;76.30;;;;;;5037195;28;20105;-78
2024/01/09 12:29:03;;;;;;;11.85;2.90;;;23.80;75.90;;;;;;5046557;28;20021;-78
2024/01/09 12:31:33;;;;;;;5.13;1.63;;;23.80;75.90;;;;;;5051762;28;20056;-77
2024/01/09 12:34:00;;;;;;;5.65;1.60;;;23.80;76.20;;;;;;5033119;28;20021;-79
2024/01/09 12:36:28;;;;;;;6.15;2.00;;;23.80;76.50;;;;;;5046355;28;20067;-78
2024/01/09 12:38:56;;;;;;;7.80;1.92;;;23.80;76.30;;;;;;5015824;28;20022;-77
2024/01/09 12:41:24;;;;;;;9.18;1.90;;;23.80;76.00;;;;;;5032852;28;20112;-78
2024/01/09 12:43:52;;;;;;;9.85;2.25;;;23.80;76.00;;;;;;5048317;28;20061;-77
2024/01/09 12:46:23;;;;;;;6.20;1.77;;;23.80;75.80;;;;;;5021891;28;20044;-78
2024/01/09 12:48:53;;;;;;;9.10;1.90;;;23.80;75.80;;;;;;5037074;28;20029;-77
2024/01/09 12:51:20;;;;;;;6.85;1.77;;;23.80;75.90;;;;;;5045752;28;20527;-81